sensor_id;sensor_type;location;lat;lon;timestamp;P1;durP1;ratioP1;P2;durP2;ratioP2
72261;SDS011;60173;52.112;8.648;2023-02-02T00:00:43;21.55;;;3.85;;
72261;SDS011;60173;52.112;8.648;2023-02-02T00:03:09;27.38;;;4.75;;
72261;SDS011;60173;52.112;8.648;2023-02-02T00:05:35;26.52;;;3.92;;
72261;SDS011;60173;52.112;8.648;2023-02-02T00:08:02;35.83;;;4.45;;
72261;SDS011;60173;52.112;8.648;2023-02-02T00:10:28;35.67;;;5.35;;
72261;SDS011;60173;52.112;8.648;2023-02-02T00:12:55;22.60;;;4.00;;
72261;SDS011;60173;52.112;8.648;2023-02-02T00:15:21;25.08;;;4.82;;
72261;SDS011;60173;52.112;8.648;2023-02-02T00:17:48;31.80;;;4.95;;
72261;SDS011;60173;52.112;8.648;2023-02-02T00:20:14;35.70;;;5.03;;
72261;SDS011;60173;52.112;8.648;2023-02-02T00:22:41;30.52;;;4.80;;
72261;SDS011;60173;52.112;8.648;2023-02-02T00:25:07;25.48;;;4.13;;
72261;SDS011;60173;52.112;8.648;2023-02-02T00:27:34;25.45;;;4.15;;
72261;SDS011;60173;52.112;8.648;2023-02-02T00:30:00;26.05;;;4.15;;
72261;SDS011;60173;52.112;8.648;2023-02-02T00:32:27;23.95;;;4.05;;
72261;SDS011;60173;52.112;8.648;2023-02-02T00:34:53;31.50;;;4.80;;
72261;SDS011;60173;52.112;8.648;2023-02-02T00:37:19;31.70;;;4.43;;
72261;SDS011;60173;52.112;8.648;2023-02-02T00:39:46;27.98;;;4.50;;
72261;SDS011;60173;52.112;8.648;2023-02-02T00:42:12;22.27;;;4.22;;
72261;SDS011;60173;52.112;8.648;2023-02-02T00:44:38;29.45;;;3.83;;
72261;SDS011;60173;52.112;8.648;2023-02-02T00:47:05;35.40;;;4.50;;
72261;SDS011;60173;52.112;8.648;2023-02-02T00:49:31;27.73;;;5.10;;
72261;SDS011;60173;52.112;8.648;2023-02-02T00:51:57;30.65;;;4.50;;
72261;SDS011;60173;52.112;8.648;2023-02-02T00:54:24;31.00;;;4.13;;
72261;SDS011;60173;52.112;8.648;2023-02-02T00:56:50;20.58;;;3.75;;
72261;SDS011;60173;52.112;8.648;2023-02-02T00:59:17;29.33;;;4.30;;
72261;SDS011;60173;52.112;8.648;2023-02-02T01:01:43;29.20;;;4.50;;
72261;SDS011;60173;52.112;8.648;2023-02-02T01:04:10;29.85;;;4.28;;
72261;SDS011;60173;52.112;8.648;2023-02-02T01:06:36;29.98;;;4.43;;
72261;SDS011;60173;52.112;8.648;2023-02-02T01:09:02;32.25;;;4.32;;
72261;SDS011;60173;52.112;8.648;2023-02-02T01:11:29;30.98;;;4.80;;
72261;SDS011;60173;52.112;8.648;2023-02-02T01:13:56;29.75;;;4.80;;
72261;SDS011;60173;52.112;8.648;2023-02-02T01:16:22;26.55;;;4.43;;
72261;SDS011;60173;52.112;8.648;2023-02-02T01:18:49;29.88;;;4.70;;
72261;SDS011;60173;52.112;8.648;2023-02-02T01:21:16;25.55;;;3.88;;
72261;SDS011;60173;52.112;8.648;2023-02-02T01:23:42;32.72;;;4.40;;
72261;SDS011;60173;52.112;8.648;2023-02-02T01:26:10;21.27;;;3.58;;
72261;SDS011;60173;52.112;8.648;2023-02-02T01:28:37;20.90;;;4.07;;
72261;SDS011;60173;52.112;8.648;2023-02-02T01:31:09;24.02;;;4.05;;
72261;SDS011;60173;52.112;8.648;2023-02-02T01:33:37;29.65;;;4.15;;
72261;SDS011;60173;52.112;8.648;2023-02-02T01:36:05;28.88;;;3.88;;
72261;SDS011;60173;52.112;8.648;2023-02-02T01:38:32;24.30;;;3.22;;
72261;SDS011;60173;52.112;8.648;2023-02-02T01:40:59;28.50;;;4.00;;
72261;SDS011;60173;52.112;8.648;2023-02-02T01:43:30;24.38;;;3.95;;
72261;SDS011;60173;52.112;8.648;2023-02-02T01:46:19;28.63;;;4.00;;
72261;SDS011;60173;52.112;8.648;2023-02-02T01:49:01;29.73;;;4.30;;
72261;SDS011;60173;52.112;8.648;2023-02-02T01:51:43;22.92;;;3.63;;
72261;SDS011;60173;52.112;8.648;2023-02-02T01:54:15;25.48;;;3.88;;
72261;SDS011;60173;52.112;8.648;2023-02-02T01:56:47;28.05;;;4.40;;
72261;SDS011;60173;52.112;8.648;2023-02-02T01:59:18;27.65;;;4.38;;
72261;SDS011;60173;52.112;8.648;2023-02-02T02:01:45;20.40;;;3.40;;
72261;SDS011;60173;52.112;8.648;2023-02-02T02:04:13;28.20;;;4.15;;
72261;SDS011;60173;52.112;8.648;2023-02-02T02:06:40;28.90;;;4.07;;
72261;SDS011;60173;52.112;8.648;2023-02-02T02:09:07;22.02;;;3.63;;
72261;SDS011;60173;52.112;8.648;2023-02-02T02:11:34;22.98;;;3.42;;
72261;SDS011;60173;52.112;8.648;2023-02-02T02:14:02;34.00;;;3.75;;
72261;SDS011;60173;52.112;8.648;2023-02-02T02:38:22;29.08;;;3.80;;
72261;SDS011;60173;52.112;8.648;2023-02-02T02:40:57;19.02;;;3.30;;
72261;SDS011;60173;52.112;8.648;2023-02-02T02:43:31;20.02;;;3.67;;
72261;SDS011;60173;52.112;8.648;2023-02-02T02:46:02;26.85;;;3.60;;
72261;SDS011;60173;52.112;8.648;2023-02-02T02:48:30;27.40;;;4.10;;
72261;SDS011;60173;52.112;8.648;2023-02-02T02:51:37;23.60;;;3.30;;
72261;SDS011;60173;52.112;8.648;2023-02-02T02:54:11;18.75;;;3.60;;
72261;SDS011;60173;52.112;8.648;2023-02-02T02:59:47;31.92;;;3.92;;
72261;SDS011;60173;52.112;8.648;2023-02-02T03:02:25;19.20;;;3.75;;
72261;SDS011;60173;52.112;8.648;2023-02-02T03:05:09;20.38;;;3.38;;
72261;SDS011;60173;52.112;8.648;2023-02-02T03:07:41;26.38;;;3.08;;
72261;SDS011;60173;52.112;8.648;2023-02-02T03:10:23;26.27;;;3.47;;
72261;SDS011;60173;52.112;8.648;2023-02-02T03:12:56;28.25;;;3.70;;
72261;SDS011;60173;52.112;8.648;2023-02-02T03:15:24;23.33;;;3.38;;
72261;SDS011;60173;52.112;8.648;2023-02-02T03:17:53;21.63;;;3.58;;
72261;SDS011;60173;52.112;8.648;2023-02-02T03:20:21;28.33;;;4.30;;
72261;SDS011;60173;52.112;8.648;2023-02-02T03:22:52;26.48;;;3.60;;
72261;SDS011;60173;52.112;8.648;2023-02-02T03:25:19;18.13;;;3.20;;
72261;SDS011;60173;52.112;8.648;2023-02-02T03:27:48;31.15;;;4.05;;
72261;SDS011;60173;52.112;8.648;2023-02-02T03:30:15;18.80;;;3.63;;
72261;SDS011;60173;52.112;8.648;2023-02-02T03:32:42;23.58;;;3.95;;
72261;SDS011;60173;52.112;8.648;2023-02-02T03:35:08;23.20;;;3.30;;
72261;SDS011;60173;52.112;8.648;2023-02-02T03:37:35;31.48;;;4.22;;
72261;SDS011;60173;52.112;8.648;2023-02-02T03:40:01;22.35;;;3.55;;
72261;SDS011;60173;52.112;8.648;2023-02-02T03:42:28;21.40;;;3.15;;
72261;SDS011;60173;52.112;8.648;2023-02-02T03:44:54;22.15;;;3.45;;
72261;SDS011;60173;52.112;8.648;2023-02-02T03:47:20;18.92;;;3.08;;
72261;SDS011;60173;52.112;8.648;2023-02-02T03:49:47;22.02;;;2.95;;
72261;SDS011;60173;52.112;8.648;2023-02-02T03:52:13;18.55;;;2.80;;
72261;SDS011;60173;52.112;8.648;2023-02-02T03:54:39;27.60;;;3.70;;
72261;SDS011;60173;52.112;8.648;2023-02-02T03:57:06;16.30;;;3.05;;
72261;SDS011;60173;52.112;8.648;2023-02-02T03:59:32;19.38;;;3.15;;
72261;SDS011;60173;52.112;8.648;2023-02-02T04:01:58;21.02;;;3.30;;
72261;SDS011;60173;52.112;8.648;2023-02-02T04:04:25;21.92;;;3.22;;
72261;SDS011;60173;52.112;8.648;2023-02-02T04:06:51;23.00;;;3.28;;
72261;SDS011;60173;52.112;8.648;2023-02-02T04:09:18;21.30;;;3.50;;
72261;SDS011;60173;52.112;8.648;2023-02-02T04:11:44;22.92;;;3.13;;
72261;SDS011;60173;52.112;8.648;2023-02-02T04:14:10;22.25;;;3.60;;
72261;SDS011;60173;52.112;8.648;2023-02-02T04:16:37;23.40;;;3.78;;
72261;SDS011;60173;52.112;8.648;2023-02-02T04:19:03;23.95;;;3.30;;
72261;SDS011;60173;52.112;8.648;2023-02-02T04:21:30;24.55;;;3.47;;
72261;SDS011;60173;52.112;8.648;2023-02-02T04:23:56;23.40;;;3.25;;
72261;SDS011;60173;52.112;8.648;2023-02-02T04:26:22;15.13;;;2.55;;
72261;SDS011;60173;52.112;8.648;2023-02-02T04:28:49;18.98;;;3.38;;
72261;SDS011;60173;52.112;8.648;2023-02-02T04:31:15;21.42;;;3.50;;
72261;SDS011;60173;52.112;8.648;2023-02-02T04:33:42;24.90;;;3.75;;
72261;SDS011;60173;52.112;8.648;2023-02-02T04:36:08;22.27;;;3.53;;
72261;SDS011;60173;52.112;8.648;2023-02-02T04:38:35;15.32;;;2.72;;
72261;SDS011;60173;52.112;8.648;2023-02-02T04:41:05;19.50;;;3.25;;
72261;SDS011;60173;52.112;8.648;2023-02-02T04:43:36;26.83;;;4.07;;
72261;SDS011;60173;52.112;8.648;2023-02-02T04:46:03;16.25;;;2.80;;
72261;SDS011;60173;52.112;8.648;2023-02-02T04:48:29;21.70;;;3.70;;
72261;SDS011;60173;52.112;8.648;2023-02-02T04:50:57;22.80;;;3.50;;
72261;SDS011;60173;52.112;8.648;2023-02-02T04:53:24;26.25;;;4.03;;
72261;SDS011;60173;52.112;8.648;2023-02-02T04:55:51;20.08;;;3.45;;
72261;SDS011;60173;52.112;8.648;2023-02-02T04:58:17;19.80;;;3.60;;
72261;SDS011;60173;52.112;8.648;2023-02-02T05:00:44;26.38;;;3.50;;
72261;SDS011;60173;52.112;8.648;2023-02-02T05:03:10;21.45;;;3.63;;
72261;SDS011;60173;52.112;8.648;2023-02-02T05:05:37;15.35;;;3.03;;
72261;SDS011;60173;52.112;8.648;2023-02-02T05:08:03;19.88;;;3.50;;
72261;SDS011;60173;52.112;8.648;2023-02-02T05:10:30;19.80;;;3.58;;
72261;SDS011;60173;52.112;8.648;2023-02-02T05:12:56;19.65;;;4.10;;
72261;SDS011;60173;52.112;8.648;2023-02-02T05:15:22;23.60;;;3.72;;
72261;SDS011;60173;52.112;8.648;2023-02-02T05:17:49;19.77;;;3.53;;
72261;SDS011;60173;52.112;8.648;2023-02-02T05:20:16;14.85;;;3.55;;
72261;SDS011;60173;52.112;8.648;2023-02-02T05:22:42;19.15;;;3.33;;
72261;SDS011;60173;52.112;8.648;2023-02-02T05:25:09;18.63;;;3.28;;
72261;SDS011;60173;52.112;8.648;2023-02-02T05:27:35;17.48;;;3.38;;
72261;SDS011;60173;52.112;8.648;2023-02-02T05:30:02;25.40;;;4.00;;
72261;SDS011;60173;52.112;8.648;2023-02-02T05:32:28;22.73;;;4.40;;
72261;SDS011;60173;52.112;8.648;2023-02-02T05:34:55;20.05;;;3.65;;
72261;SDS011;60173;52.112;8.648;2023-02-02T05:37:21;25.05;;;3.20;;
72261;SDS011;60173;52.112;8.648;2023-02-02T05:39:47;20.92;;;3.15;;
72261;SDS011;60173;52.112;8.648;2023-02-02T05:42:14;19.33;;;3.58;;
72261;SDS011;60173;52.112;8.648;2023-02-02T05:44:40;21.38;;;3.22;;
72261;SDS011;60173;52.112;8.648;2023-02-02T05:47:06;14.20;;;3.13;;
72261;SDS011;60173;52.112;8.648;2023-02-02T05:49:32;14.00;;;2.90;;
72261;SDS011;60173;52.112;8.648;2023-02-02T05:51:59;17.10;;;2.88;;
72261;SDS011;60173;52.112;8.648;2023-02-02T05:54:25;14.18;;;2.63;;
72261;SDS011;60173;52.112;8.648;2023-02-02T05:56:52;15.00;;;2.40;;
72261;SDS011;60173;52.112;8.648;2023-02-02T05:59:19;14.10;;;2.70;;
72261;SDS011;60173;52.112;8.648;2023-02-02T06:01:45;16.38;;;3.00;;
72261;SDS011;60173;52.112;8.648;2023-02-02T06:04:12;16.98;;;2.67;;
72261;SDS011;60173;52.112;8.648;2023-02-02T06:06:39;11.98;;;2.60;;
72261;SDS011;60173;52.112;8.648;2023-02-02T06:09:06;15.13;;;2.25;;
72261;SDS011;60173;52.112;8.648;2023-02-02T06:11:33;12.88;;;2.47;;
72261;SDS011;60173;52.112;8.648;2023-02-02T06:13:59;17.50;;;2.78;;
72261;SDS011;60173;52.112;8.648;2023-02-02T06:16:26;14.82;;;2.95;;
72261;SDS011;60173;52.112;8.648;2023-02-02T06:18:52;21.10;;;3.25;;
72261;SDS011;60173;52.112;8.648;2023-02-02T06:21:19;15.80;;;2.75;;
72261;SDS011;60173;52.112;8.648;2023-02-02T06:23:45;15.98;;;2.30;;
72261;SDS011;60173;52.112;8.648;2023-02-02T06:26:12;14.98;;;2.83;;
72261;SDS011;60173;52.112;8.648;2023-02-02T06:28:39;14.27;;;2.30;;
72261;SDS011;60173;52.112;8.648;2023-02-02T06:31:07;17.50;;;2.45;;
72261;SDS011;60173;52.112;8.648;2023-02-02T06:33:36;13.85;;;2.53;;
72261;SDS011;60173;52.112;8.648;2023-02-02T06:36:03;16.42;;;2.50;;
72261;SDS011;60173;52.112;8.648;2023-02-02T06:38:31;15.52;;;2.70;;
72261;SDS011;60173;52.112;8.648;2023-02-02T06:40:58;16.75;;;3.30;;
72261;SDS011;60173;52.112;8.648;2023-02-02T06:43:25;16.10;;;2.40;;
72261;SDS011;60173;52.112;8.648;2023-02-02T06:45:51;11.80;;;2.90;;
72261;SDS011;60173;52.112;8.648;2023-02-02T06:48:18;16.95;;;2.47;;
72261;SDS011;60173;52.112;8.648;2023-02-02T06:50:44;16.55;;;2.42;;
72261;SDS011;60173;52.112;8.648;2023-02-02T06:53:10;9.48;;;1.98;;
72261;SDS011;60173;52.112;8.648;2023-02-02T06:55:36;15.77;;;2.10;;
72261;SDS011;60173;52.112;8.648;2023-02-02T06:58:03;11.75;;;1.85;;
72261;SDS011;60173;52.112;8.648;2023-02-02T07:00:29;15.35;;;2.08;;
72261;SDS011;60173;52.112;8.648;2023-02-02T07:02:56;15.63;;;2.15;;
72261;SDS011;60173;52.112;8.648;2023-02-02T07:05:22;20.38;;;2.75;;
72261;SDS011;60173;52.112;8.648;2023-02-02T07:07:49;13.77;;;2.30;;
72261;SDS011;60173;52.112;8.648;2023-02-02T07:10:16;13.23;;;2.20;;
72261;SDS011;60173;52.112;8.648;2023-02-02T07:13:03;10.27;;;2.20;;
72261;SDS011;60173;52.112;8.648;2023-02-02T07:15:30;18.27;;;2.38;;
72261;SDS011;60173;52.112;8.648;2023-02-02T07:17:56;12.40;;;2.05;;
72261;SDS011;60173;52.112;8.648;2023-02-02T07:20:22;16.30;;;2.42;;
72261;SDS011;60173;52.112;8.648;2023-02-02T07:22:49;12.18;;;2.45;;
72261;SDS011;60173;52.112;8.648;2023-02-02T07:25:15;15.57;;;2.55;;
72261;SDS011;60173;52.112;8.648;2023-02-02T07:27:42;11.40;;;2.53;;
72261;SDS011;60173;52.112;8.648;2023-02-02T07:30:08;13.27;;;2.30;;
72261;SDS011;60173;52.112;8.648;2023-02-02T07:32:35;8.65;;;1.58;;
72261;SDS011;60173;52.112;8.648;2023-02-02T07:35:01;12.35;;;2.13;;
72261;SDS011;60173;52.112;8.648;2023-02-02T07:37:28;11.82;;;2.08;;
72261;SDS011;60173;52.112;8.648;2023-02-02T07:39:54;16.90;;;2.88;;
72261;SDS011;60173;52.112;8.648;2023-02-02T07:42:21;15.20;;;2.47;;
72261;SDS011;60173;52.112;8.648;2023-02-02T07:44:47;10.50;;;1.60;;
72261;SDS011;60173;52.112;8.648;2023-02-02T07:47:13;11.20;;;1.98;;
72261;SDS011;60173;52.112;8.648;2023-02-02T07:49:39;11.43;;;2.13;;
72261;SDS011;60173;52.112;8.648;2023-02-02T07:52:06;13.52;;;2.03;;
72261;SDS011;60173;52.112;8.648;2023-02-02T07:54:32;15.10;;;2.00;;
72261;SDS011;60173;52.112;8.648;2023-02-02T07:56:58;9.10;;;1.73;;
72261;SDS011;60173;52.112;8.648;2023-02-02T07:59:25;6.68;;;2.15;;
72261;SDS011;60173;52.112;8.648;2023-02-02T08:01:51;11.52;;;1.85;;
72261;SDS011;60173;52.112;8.648;2023-02-02T08:04:17;13.88;;;2.13;;
72261;SDS011;60173;52.112;8.648;2023-02-02T08:06:44;14.95;;;1.80;;
72261;SDS011;60173;52.112;8.648;2023-02-02T08:09:10;14.23;;;2.28;;
72261;SDS011;60173;52.112;8.648;2023-02-02T08:11:36;15.73;;;2.30;;
72261;SDS011;60173;52.112;8.648;2023-02-02T08:14:04;10.48;;;1.98;;
72261;SDS011;60173;52.112;8.648;2023-02-02T08:16:31;12.27;;;2.03;;
72261;SDS011;60173;52.112;8.648;2023-02-02T08:18:59;8.32;;;1.88;;
72261;SDS011;60173;52.112;8.648;2023-02-02T08:21:26;12.45;;;1.75;;
72261;SDS011;60173;52.112;8.648;2023-02-02T08:23:52;8.30;;;1.50;;
72261;SDS011;60173;52.112;8.648;2023-02-02T08:26:22;7.35;;;1.52;;
72261;SDS011;60173;52.112;8.648;2023-02-02T08:28:52;10.40;;;2.00;;
72261;SDS011;60173;52.112;8.648;2023-02-02T08:31:24;7.05;;;1.38;;
72261;SDS011;60173;52.112;8.648;2023-02-02T08:33:52;8.30;;;1.63;;
72261;SDS011;60173;52.112;8.648;2023-02-02T08:36:19;11.82;;;1.95;;
72261;SDS011;60173;52.112;8.648;2023-02-02T08:38:47;12.05;;;1.75;;
72261;SDS011;60173;52.112;8.648;2023-02-02T08:41:16;9.63;;;1.75;;
72261;SDS011;60173;52.112;8.648;2023-02-02T08:43:45;10.60;;;2.33;;
72261;SDS011;60173;52.112;8.648;2023-02-02T08:46:12;12.98;;;2.20;;
72261;SDS011;60173;52.112;8.648;2023-02-02T08:48:41;7.70;;;1.50;;
72261;SDS011;60173;52.112;8.648;2023-02-02T08:51:09;9.13;;;1.95;;
72261;SDS011;60173;52.112;8.648;2023-02-02T08:53:36;12.98;;;1.90;;
72261;SDS011;60173;52.112;8.648;2023-02-02T08:56:04;11.57;;;2.38;;
72261;SDS011;60173;52.112;8.648;2023-02-02T08:58:32;13.70;;;2.75;;
72261;SDS011;60173;52.112;8.648;2023-02-02T09:01:05;7.70;;;1.90;;
72261;SDS011;60173;52.112;8.648;2023-02-02T09:03:36;9.15;;;2.08;;
72261;SDS011;60173;52.112;8.648;2023-02-02T09:06:03;6.85;;;1.45;;
72261;SDS011;60173;52.112;8.648;2023-02-02T09:08:35;7.57;;;1.63;;
72261;SDS011;60173;52.112;8.648;2023-02-02T09:11:15;6.68;;;1.73;;
72261;SDS011;60173;52.112;8.648;2023-02-02T09:13:44;10.15;;;1.65;;
72261;SDS011;60173;52.112;8.648;2023-02-02T09:16:13;12.23;;;1.80;;
72261;SDS011;60173;52.112;8.648;2023-02-02T09:18:41;9.27;;;1.77;;
72261;SDS011;60173;52.112;8.648;2023-02-02T09:21:09;7.97;;;1.73;;
72261;SDS011;60173;52.112;8.648;2023-02-02T09:23:38;8.82;;;1.90;;
72261;SDS011;60173;52.112;8.648;2023-02-02T09:29:02;5.35;;;1.45;;
72261;SDS011;60173;52.112;8.648;2023-02-02T09:31:32;7.22;;;1.63;;
72261;SDS011;60173;52.112;8.648;2023-02-02T09:34:02;9.88;;;1.77;;
72261;SDS011;60173;52.112;8.648;2023-02-02T09:36:30;11.13;;;1.77;;
72261;SDS011;60173;52.112;8.648;2023-02-02T09:38:57;8.45;;;1.80;;
72261;SDS011;60173;52.112;8.648;2023-02-02T09:44:05;8.30;;;1.60;;
72261;SDS011;60173;52.112;8.648;2023-02-02T09:49:34;7.85;;;1.42;;
72261;SDS011;60173;52.112;8.648;2023-02-02T09:52:50;11.55;;;2.33;;
72261;SDS011;60173;52.112;8.648;2023-02-02T09:55:13;11.55;;;1.50;;
72261;SDS011;60173;52.112;8.648;2023-02-02T09:57:44;8.48;;;1.75;;
72261;SDS011;60173;52.112;8.648;2023-02-02T10:00:30;9.88;;;1.88;;
72261;SDS011;60173;52.112;8.648;2023-02-02T10:03:00;9.85;;;2.20;;
72261;SDS011;60173;52.112;8.648;2023-02-02T10:05:34;8.60;;;2.40;;
72261;SDS011;60173;52.112;8.648;2023-02-02T10:08:09;10.18;;;2.28;;
72261;SDS011;60173;52.112;8.648;2023-02-02T10:10:59;13.23;;;2.05;;
72261;SDS011;60173;52.112;8.648;2023-02-02T10:13:38;8.70;;;1.98;;
72261;SDS011;60173;52.112;8.648;2023-02-02T10:16:11;9.52;;;1.83;;
72261;SDS011;60173;52.112;8.648;2023-02-02T10:18:48;6.75;;;2.05;;
72261;SDS011;60173;52.112;8.648;2023-02-02T10:24:17;7.72;;;1.65;;
72261;SDS011;60173;52.112;8.648;2023-02-02T10:26:49;10.95;;;2.22;;
72261;SDS011;60173;52.112;8.648;2023-02-02T10:37:41;10.40;;;1.80;;
72261;SDS011;60173;52.112;8.648;2023-02-02T10:46:41;13.32;;;1.95;;
72261;SDS011;60173;52.112;8.648;2023-02-02T10:49:23;12.52;;;2.33;;
72261;SDS011;60173;52.112;8.648;2023-02-02T10:52:16;15.02;;;2.20;;
72261;SDS011;60173;52.112;8.648;2023-02-02T11:03:12;9.70;;;2.25;;
72261;SDS011;60173;52.112;8.648;2023-02-02T11:05:42;16.55;;;2.83;;
72261;SDS011;60173;52.112;8.648;2023-02-02T11:10:40;12.35;;;2.45;;
72261;SDS011;60173;52.112;8.648;2023-02-02T11:13:10;11.65;;;2.30;;
72261;SDS011;60173;52.112;8.648;2023-02-02T11:15:40;10.60;;;2.35;;
72261;SDS011;60173;52.112;8.648;2023-02-02T11:18:13;12.23;;;2.20;;
72261;SDS011;60173;52.112;8.648;2023-02-02T11:20:52;7.43;;;2.00;;
72261;SDS011;60173;52.112;8.648;2023-02-02T11:23:19;9.73;;;2.33;;
72261;SDS011;60173;52.112;8.648;2023-02-02T11:25:55;8.60;;;1.95;;
72261;SDS011;60173;52.112;8.648;2023-02-02T11:28:26;10.07;;;2.35;;
72261;SDS011;60173;52.112;8.648;2023-02-02T11:30:57;11.20;;;2.20;;
72261;SDS011;60173;52.112;8.648;2023-02-02T11:33:31;11.27;;;2.00;;
72261;SDS011;60173;52.112;8.648;2023-02-02T11:36:03;12.98;;;1.92;;
72261;SDS011;60173;52.112;8.648;2023-02-02T11:38:42;14.23;;;2.40;;
72261;SDS011;60173;52.112;8.648;2023-02-02T11:41:10;12.88;;;2.75;;
72261;SDS011;60173;52.112;8.648;2023-02-02T11:43:38;12.43;;;3.08;;
72261;SDS011;60173;52.112;8.648;2023-02-02T11:48:59;14.00;;;2.72;;
72261;SDS011;60173;52.112;8.648;2023-02-02T11:51:28;10.48;;;2.38;;
72261;SDS011;60173;52.112;8.648;2023-02-02T11:54:00;12.65;;;2.22;;
72261;SDS011;60173;52.112;8.648;2023-02-02T11:56:33;11.20;;;2.05;;
72261;SDS011;60173;52.112;8.648;2023-02-02T11:59:02;16.63;;;3.03;;
72261;SDS011;60173;52.112;8.648;2023-02-02T12:01:34;15.63;;;3.88;;
72261;SDS011;60173;52.112;8.648;2023-02-02T12:04:08;10.93;;;2.20;;
72261;SDS011;60173;52.112;8.648;2023-02-02T12:06:48;12.68;;;2.30;;
72261;SDS011;60173;52.112;8.648;2023-02-02T12:09:19;5.93;;;1.58;;
72261;SDS011;60173;52.112;8.648;2023-02-02T12:12:06;12.82;;;1.85;;
72261;SDS011;60173;52.112;8.648;2023-02-02T12:15:01;9.40;;;1.52;;
72261;SDS011;60173;52.112;8.648;2023-02-02T12:17:46;8.63;;;1.70;;
72261;SDS011;60173;52.112;8.648;2023-02-02T12:23:18;15.35;;;2.65;;
72261;SDS011;60173;52.112;8.648;2023-02-02T12:26:08;9.23;;;2.33;;
72261;SDS011;60173;52.112;8.648;2023-02-02T12:37:16;10.65;;;2.00;;
72261;SDS011;60173;52.112;8.648;2023-02-02T12:40:37;15.10;;;2.58;;
72261;SDS011;60173;52.112;8.648;2023-02-02T12:57:22;11.07;;;2.08;;
72261;SDS011;60173;52.112;8.648;2023-02-02T13:00:01;16.48;;;2.47;;
72261;SDS011;60173;52.112;8.648;2023-02-02T13:08:44;14.43;;;2.30;;
72261;SDS011;60173;52.112;8.648;2023-02-02T13:11:09;15.88;;;3.08;;
72261;SDS011;60173;52.112;8.648;2023-02-02T13:13:39;20.17;;;2.65;;
72261;SDS011;60173;52.112;8.648;2023-02-02T13:16:06;11.82;;;2.60;;
72261;SDS011;60173;52.112;8.648;2023-02-02T13:18:45;12.07;;;2.67;;
72261;SDS011;60173;52.112;8.648;2023-02-02T13:21:20;21.07;;;2.90;;
72261;SDS011;60173;52.112;8.648;2023-02-02T13:23:50;15.90;;;2.60;;
72261;SDS011;60173;52.112;8.648;2023-02-02T13:26:22;13.60;;;2.80;;
72261;SDS011;60173;52.112;8.648;2023-02-02T13:28:52;12.35;;;2.28;;
72261;SDS011;60173;52.112;8.648;2023-02-02T13:34:01;18.70;;;3.40;;
72261;SDS011;60173;52.112;8.648;2023-02-02T13:36:38;14.70;;;2.83;;
72261;SDS011;60173;52.112;8.648;2023-02-02T13:39:11;13.43;;;2.70;;
72261;SDS011;60173;52.112;8.648;2023-02-02T13:41:42;12.80;;;3.08;;
72261;SDS011;60173;52.112;8.648;2023-02-02T13:44:12;14.25;;;3.03;;
72261;SDS011;60173;52.112;8.648;2023-02-02T13:47:28;12.30;;;2.67;;
72261;SDS011;60173;52.112;8.648;2023-02-02T13:49:42;14.25;;;3.58;;
72261;SDS011;60173;52.112;8.648;2023-02-02T13:55:22;11.73;;;3.38;;
72261;SDS011;60173;52.112;8.648;2023-02-02T13:58:26;16.05;;;3.63;;
72261;SDS011;60173;52.112;8.648;2023-02-02T14:01:08;10.30;;;3.22;;
72261;SDS011;60173;52.112;8.648;2023-02-02T14:03:38;14.00;;;3.83;;
72261;SDS011;60173;52.112;8.648;2023-02-02T14:06:16;13.43;;;3.50;;
72261;SDS011;60173;52.112;8.648;2023-02-02T14:08:45;11.40;;;3.20;;
72261;SDS011;60173;52.112;8.648;2023-02-02T14:11:19;16.08;;;3.75;;
72261;SDS011;60173;52.112;8.648;2023-02-02T14:13:51;10.40;;;3.55;;
72261;SDS011;60173;52.112;8.648;2023-02-02T14:16:23;14.75;;;3.72;;
72261;SDS011;60173;52.112;8.648;2023-02-02T14:19:12;13.25;;;3.10;;
72261;SDS011;60173;52.112;8.648;2023-02-02T14:27:00;12.27;;;3.35;;
72261;SDS011;60173;52.112;8.648;2023-02-02T14:31:59;9.93;;;3.00;;
72261;SDS011;60173;52.112;8.648;2023-02-02T14:36:57;12.40;;;3.30;;
72261;SDS011;60173;52.112;8.648;2023-02-02T14:39:38;10.40;;;2.92;;
72261;SDS011;60173;52.112;8.648;2023-02-02T14:45:25;12.13;;;3.55;;
72261;SDS011;60173;52.112;8.648;2023-02-02T14:47:57;13.57;;;3.30;;
72261;SDS011;60173;52.112;8.648;2023-02-02T14:55:34;8.48;;;3.35;;
72261;SDS011;60173;52.112;8.648;2023-02-02T14:58:20;12.23;;;4.22;;
72261;SDS011;60173;52.112;8.648;2023-02-02T15:01:03;9.15;;;3.72;;
72261;SDS011;60173;52.112;8.648;2023-02-02T15:06:13;15.35;;;4.75;;
72261;SDS011;60173;52.112;8.648;2023-02-02T15:22:50;17.02;;;5.88;;
72261;SDS011;60173;52.112;8.648;2023-02-02T15:25:29;14.57;;;5.95;;
72261;SDS011;60173;52.112;8.648;2023-02-02T15:28:27;15.20;;;5.88;;
72261;SDS011;60173;52.112;8.648;2023-02-02T15:31:06;15.07;;;6.10;;
72261;SDS011;60173;52.112;8.648;2023-02-02T15:34:01;12.90;;;6.10;;
72261;SDS011;60173;52.112;8.648;2023-02-02T15:36:38;13.70;;;6.90;;
72261;SDS011;60173;52.112;8.648;2023-02-02T15:39:28;15.18;;;6.55;;
72261;SDS011;60173;52.112;8.648;2023-02-02T15:41:57;15.27;;;6.47;;
72261;SDS011;60173;52.112;8.648;2023-02-02T15:44:27;16.02;;;7.00;;
72261;SDS011;60173;52.112;8.648;2023-02-02T15:46:54;13.73;;;6.50;;
72261;SDS011;60173;52.112;8.648;2023-02-02T15:52:11;16.65;;;7.40;;
72261;SDS011;60173;52.112;8.648;2023-02-02T15:54:54;15.52;;;7.75;;
72261;SDS011;60173;52.112;8.648;2023-02-02T15:57:33;15.77;;;7.97;;
72261;SDS011;60173;52.112;8.648;2023-02-02T16:00:20;14.00;;;7.47;;
72261;SDS011;60173;52.112;8.648;2023-02-02T16:02:52;14.98;;;8.52;;
72261;SDS011;60173;52.112;8.648;2023-02-02T16:05:42;13.23;;;8.00;;
72261;SDS011;60173;52.112;8.648;2023-02-02T16:08:14;15.57;;;8.23;;
72261;SDS011;60173;52.112;8.648;2023-02-02T16:11:00;17.17;;;9.15;;
72261;SDS011;60173;52.112;8.648;2023-02-02T16:13:30;15.60;;;8.52;;
72261;SDS011;60173;52.112;8.648;2023-02-02T16:16:05;18.45;;;8.80;;
72261;SDS011;60173;52.112;8.648;2023-02-02T16:18:46;17.50;;;9.57;;
72261;SDS011;60173;52.112;8.648;2023-02-02T16:21:19;18.58;;;10.07;;
72261;SDS011;60173;52.112;8.648;2023-02-02T16:23:49;18.15;;;10.93;;
72261;SDS011;60173;52.112;8.648;2023-02-02T16:26:16;21.42;;;11.02;;
72261;SDS011;60173;52.112;8.648;2023-02-02T16:28:52;16.08;;;10.07;;
72261;SDS011;60173;52.112;8.648;2023-02-02T16:31:19;17.25;;;10.90;;
72261;SDS011;60173;52.112;8.648;2023-02-02T16:33:46;15.32;;;9.70;;
72261;SDS011;60173;52.112;8.648;2023-02-02T16:36:16;14.30;;;9.60;;
72261;SDS011;60173;52.112;8.648;2023-02-02T16:38:51;18.85;;;9.90;;
72261;SDS011;60173;52.112;8.648;2023-02-02T16:47:07;21.00;;;12.57;;
72261;SDS011;60173;52.112;8.648;2023-02-02T16:49:51;20.33;;;12.85;;
72261;SDS011;60173;52.112;8.648;2023-02-02T16:52:19;21.10;;;12.55;;
72261;SDS011;60173;52.112;8.648;2023-02-02T16:54:53;23.30;;;13.40;;
72261;SDS011;60173;52.112;8.648;2023-02-02T16:57:23;25.65;;;15.38;;
72261;SDS011;60173;52.112;8.648;2023-02-02T16:59:53;25.08;;;16.00;;
72261;SDS011;60173;52.112;8.648;2023-02-02T17:05:02;26.73;;;16.13;;
72261;SDS011;60173;52.112;8.648;2023-02-02T17:07:33;30.58;;;16.90;;
72261;SDS011;60173;52.112;8.648;2023-02-02T17:13:00;28.55;;;14.65;;
72261;SDS011;60173;52.112;8.648;2023-02-02T17:18:01;23.70;;;14.07;;
72261;SDS011;60173;52.112;8.648;2023-02-02T17:20:29;21.83;;;12.90;;
72261;SDS011;60173;52.112;8.648;2023-02-02T17:23:00;24.42;;;13.13;;
72261;SDS011;60173;52.112;8.648;2023-02-02T17:25:32;21.63;;;12.52;;
72261;SDS011;60173;52.112;8.648;2023-02-02T17:28:06;20.77;;;12.52;;
72261;SDS011;60173;52.112;8.648;2023-02-02T17:30:38;19.85;;;13.00;;